Terminal Aerodrome Forecast
Issued by NWS Cleveland, OH

Home | Current Version | Previous Version | Graphics & Text | Print | Product List | Glossary Off
Versions: 1 2 3 4 5 6 7 8 9 10 11 12 13 14 15 16 17 18 19 20

000
FTUS41 KCLE 201100
TAFTOL
TAF
KTOL 201120Z 2012/2112 25004KT P6SM FEW005 SCT150
      TEMPO 2012/2013 3SM BR SCT005
     FM201400 25012KT P6SM BKN035
     FM201900 28010KT P6SM SCT040
     FM211000 VRB03KT 4SM BR FEW015 SCT100=

USA.gov is the U.S. government's official web portal to all federal, state and local government web resources and services.